Time;durP1;ratioP1;P1;durP2;ratioP2;P2;SDS_P1;SDS_P2;PMS_P1;PMS_P2;Temp;Humidity;BMP_temperature;BMP_pressure;BME280_temperature;BME280_humidity;BME280_pressure;Samples;Min_cycle;Max_cycle;Signal;HPM_P1;HPM_P2
2023/12/20 00:02:16;;;;;;;17.50;10.80;;;;;;;8.05;96.38;100714.59;108112;1283;22027;-63
2023/12/20 00:04:42;;;;;;;19.50;11.10;;;;;;;8.07;96.48;100709.00;108179;1287;21988;-63
2023/12/20 00:07:07;;;;;;;19.20;11.60;;;;;;;8.10;96.19;100709.36;108071;1287;21988;-62
2023/12/20 00:09:33;;;;;;;20.90;10.90;;;;;;;8.13;95.97;100710.42;108060;1287;22002;-63
2023/12/20 00:11:59;;;;;;;16.30;10.80;;;;;;;8.14;95.67;100707.10;108088;1288;22002;-62
2023/12/20 00:14:24;;;;;;;18.60;11.40;;;;;;;8.12;95.27;100703.60;108084;1277;22010;-63
2023/12/20 00:16:50;;;;;;;16.70;10.60;;;;;;;8.10;94.79;100697.65;108111;1288;21994;-62
2023/12/20 00:19:15;;;;;;;15.90;10.40;;;;;;;8.07;94.71;100691.52;108128;1288;21992;-62
2023/12/20 00:21:41;;;;;;;14.90;9.60;;;;;;;8.04;94.49;100690.29;108130;1288;22004;-62
2023/12/20 00:24:06;;;;;;;15.90;10.40;;;;;;;8.02;94.72;100682.05;108091;1288;21993;-63
2023/12/20 00:26:32;;;;;;;20.10;11.30;;;;;;;7.98;95.11;100680.48;108107;1284;21993;-63
2023/12/20 00:28:57;;;;;;;17.60;10.20;;;;;;;7.94;95.52;100683.98;108121;1288;21986;-63
2023/12/20 00:31:23;;;;;;;18.30;10.40;;;;;;;7.91;95.72;100685.17;108117;1288;21999;-63
2023/12/20 00:33:48;;;;;;;17.60;11.10;;;;;;;7.94;95.69;100679.42;108099;1277;21994;-62
2023/12/20 00:36:14;;;;;;;17.30;11.00;;;;;;;7.96;95.69;100673.13;108100;1288;21997;-62
2023/12/20 00:38:40;;;;;;;18.50;11.50;;;;;;;7.97;95.80;100669.81;108095;1285;21999;-63
2023/12/20 00:41:05;;;;;;;15.90;9.90;;;;;;;8.00;95.53;100664.75;108105;1288;21984;-62
2023/12/20 00:43:31;;;;;;;19.00;11.10;;;;;;;8.02;95.45;100660.75;108101;1278;22079;-64
2023/12/20 00:45:57;;;;;;;17.30;10.20;;;;;;;8.01;95.50;100660.05;107908;1277;22014;-63
2023/12/20 00:48:22;;;;;;;17.20;10.00;;;;;;;8.03;95.33;100653.75;108141;1275;22006;-64
2023/12/20 00:50:48;;;;;;;16.10;10.10;;;;;;;8.05;95.36;100646.42;108090;1287;21990;-64
2023/12/20 00:53:13;;;;;;;14.90;10.20;;;;;;;8.06;95.87;100639.61;108147;1287;21995;-62
2023/12/20 00:55:40;;;;;;;17.00;10.30;;;;;;;8.07;96.47;100637.17;108108;1288;21993;-63
2023/12/20 00:58:06;;;;;;;17.00;10.70;;;;;;;8.12;96.90;100631.06;108111;1277;21988;-63
2023/12/20 01:00:32;;;;;;;17.50;11.00;;;;;;;8.13;97.44;100622.49;108157;1287;22000;-64
2023/12/20 01:02:57;;;;;;;19.20;11.10;;;;;;;8.17;97.52;100615.85;108107;1288;23500;-63
2023/12/20 01:05:23;;;;;;;20.50;11.50;;;;;;;8.23;96.85;100608.52;108129;1277;21990;-63
2023/12/20 01:07:49;;;;;;;18.70;11.30;;;;;;;8.19;97.41;100606.77;108153;1287;22024;-64
2023/12/20 01:10:14;;;;;;;19.20;12.10;;;;;;;8.22;97.24;100604.14;108147;1288;22453;-63
2023/12/20 01:12:40;;;;;;;18.90;11.50;;;;;;;8.21;97.17;100603.09;108127;1288;22008;-63
2023/12/20 01:15:06;;;;;;;17.80;11.30;;;;;;;8.23;97.11;100600.82;108130;1288;22002;-63
2023/12/20 01:17:32;;;;;;;18.70;11.40;;;;;;;8.22;97.11;100597.85;108110;1288;21998;-63
2023/12/20 01:19:58;;;;;;;19.90;11.40;;;;;;;8.23;97.19;100590.69;108103;1277;21993;-63
2023/12/20 01:22:23;;;;;;;16.90;10.70;;;;;;;8.25;96.83;100588.42;108155;1277;21991;-64
2023/12/20 01:24:49;;;;;;;20.50;11.30;;;;;;;8.24;96.60;100587.20;108141;1284;22081;-63
2023/12/20 01:27:14;;;;;;;17.50;11.20;;;;;;;8.26;96.54;100581.78;108130;1277;22093;-63
2023/12/20 01:29:40;;;;;;;18.60;11.60;;;;;;;8.28;96.28;100572.70;108055;1286;22000;-64
2023/12/20 01:32:06;;;;;;;18.70;11.70;;;;;;;8.24;96.31;100571.63;108122;1287;22002;-65
2023/12/20 01:34:32;;;;;;;18.50;11.70;;;;;;;8.19;96.24;100571.11;108148;1287;21990;-64
2023/12/20 01:36:57;;;;;;;20.20;11.00;;;;;;;8.18;95.75;100569.18;108095;1287;21997;-63
2023/12/20 01:39:23;;;;;;;18.60;11.10;;;;;;;8.17;95.02;100557.64;107892;1288;22000;-63
2023/12/20 01:41:48;;;;;;;15.20;10.20;;;;;;;8.13;94.77;100557.13;108078;1284;22007;-63
2023/12/20 01:44:14;;;;;;;17.50;10.80;;;;;;;8.10;94.62;100554.33;108108;1280;21994;-63
2023/12/20 01:46:39;;;;;;;17.00;10.90;;;;;;;8.05;94.54;100558.34;108096;1277;21988;-64
2023/12/20 01:49:05;;;;;;;19.10;10.90;;;;;;;8.01;94.25;100551.35;108097;1278;21996;-63
2023/12/20 01:51:31;;;;;;;17.30;11.30;;;;;;;7.94;93.92;100551.69;107923;1276;22376;-65
2023/12/20 01:53:57;;;;;;;17.00;10.70;;;;;;;7.88;93.76;100550.27;108126;1287;22001;-64
2023/12/20 01:56:22;;;;;;;17.30;10.20;;;;;;;7.78;93.32;100546.41;108199;1287;21987;-63
2023/12/20 01:58:48;;;;;;;18.30;11.00;;;;;;;7.67;93.80;100543.60;108237;1275;21996;-64
2023/12/20 02:01:13;;;;;;;17.70;11.00;;;;;;;7.62;93.68;100547.42;108122;1284;21990;-64
2023/12/20 02:03:41;;;;;;;17.10;11.30;;;;;;;7.58;93.67;100544.29;108223;1287;22000;-64
2023/12/20 02:06:07;;;;;;;15.90;10.30;;;;;;;7.54;93.81;100537.98;108193;1276;21989;-63
2023/12/20 02:08:34;;;;;;;18.40;11.20;;;;;;;7.47;93.97;100535.52;108235;1285;21994;-63
2023/12/20 02:10:59;;;;;;;18.30;11.40;;;;;;;7.42;93.79;100540.58;108169;1287;22022;-65
2023/12/20 02:13:26;;;;;;;18.40;10.80;;;;;;;7.42;93.84;100539.00;108200;1287;21996;-64
2023/12/20 02:15:52;;;;;;;17.30;10.80;;;;;;;7.41;93.75;100539.52;108192;1281;22000;-63
2023/12/20 02:18:18;;;;;;;16.30;10.60;;;;;;;7.40;93.46;100537.59;108216;1281;22032;-65
2023/12/20 02:20:43;;;;;;;16.20;10.40;;;;;;;7.38;93.35;100528.16;108127;1287;21992;-65
2023/12/20 02:23:09;;;;;;;21.30;12.20;;;;;;;7.29;93.21;100527.42;108136;1287;21998;-66
2023/12/20 02:25:34;;;;;;;19.10;11.60;;;;;;;7.22;93.12;100526.02;108149;1287;21992;-62
2023/12/20 02:28:01;;;;;;;21.90;12.80;;;;;;;7.17;93.10;100522.67;108202;1287;21992;-64
2023/12/20 02:30:26;;;;;;;18.60;12.40;;;;;;;7.12;93.30;100517.77;108290;1278;22061;-64
2023/12/20 02:32:52;;;;;;;24.00;12.90;;;;;;;7.08;93.58;100513.55;108226;1287;21987;-63
2023/12/20 02:35:17;;;;;;;21.50;12.10;;;;;;;7.04;93.88;100517.22;108083;1287;22039;-64
2023/12/20 02:37:43;;;;;;;20.50;12.20;;;;;;;7.02;93.96;100519.13;108174;1287;22457;-63
2023/12/20 02:40:10;;;;;;;18.10;11.50;;;;;;;6.99;93.92;100515.61;108131;1287;21997;-63
2023/12/20 02:42:36;;;;;;;19.80;11.60;;;;;;;6.98;93.85;100510.38;108200;1287;21990;-63
2023/12/20 02:45:02;;;;;;;19.70;11.40;;;;;;;6.98;93.78;100506.19;108195;1278;21996;-65
2023/12/20 02:47:29;;;;;;;21.00;11.70;;;;;;;6.97;93.94;100505.84;107420;1278;1003775;-64
2023/12/20 02:49:55;;;;;;;21.10;12.00;;;;;;;6.97;94.42;100507.93;108143;1278;21997;-64
2023/12/20 02:52:22;;;;;;;21.80;12.70;;;;;;;6.97;94.93;100505.15;108187;1284;22063;-64
2023/12/20 02:54:48;;;;;;;19.10;12.20;;;;;;;6.93;96.93;100504.59;108124;1287;21998;-64
2023/12/20 02:57:13;;;;;;;18.40;12.00;;;;;;;6.98;97.23;100502.52;108198;1277;21997;-67
2023/12/20 02:59:39;;;;;;;18.90;12.40;;;;;;;7.03;97.38;100500.46;108238;1275;22002;-65
2023/12/20 03:02:05;;;;;;;21.30;13.20;;;;;;;7.08;98.23;100501.69;108224;1287;22024;-65
2023/12/20 03:04:30;;;;;;;21.50;13.10;;;;;;;7.06;99.75;100496.63;108169;1287;21999;-63
2023/12/20 03:06:56;;;;;;;20.90;13.90;;;;;;;7.16;99.97;100497.20;108149;1287;21987;-65
2023/12/20 03:09:21;;;;;;;22.10;14.00;;;;;;;7.25;99.70;100494.95;108117;1287;21986;-64
2023/12/20 03:11:47;;;;;;;20.40;13.80;;;;;;;7.31;99.44;100499.85;108131;1281;22068;-66
2023/12/20 03:14:12;;;;;;;21.50;12.70;;;;;;;7.37;98.56;100500.39;108240;1278;21993;-64
2023/12/20 03:16:38;;;;;;;19.80;12.70;;;;;;;7.40;98.05;100496.23;108102;1287;22003;-63
2023/12/20 03:19:03;;;;;;;20.70;12.90;;;;;;;7.42;97.38;100491.86;108110;1287;21994;-64
2023/12/20 03:21:29;;;;;;;20.30;13.10;;;;;;;7.44;96.83;100490.82;107518;1287;1002289;-68
2023/12/20 03:23:54;;;;;;;21.60;13.30;;;;;;;7.42;96.66;100487.84;108185;1284;23606;-66
2023/12/20 03:26:22;;;;;;;22.70;13.50;;;;;;;7.36;97.07;100483.98;108194;1277;21996;-66
2023/12/20 03:28:48;;;;;;;22.30;13.60;;;;;;;7.34;96.83;100480.14;108193;1275;21989;-67
2023/12/20 03:31:14;;;;;;;22.40;13.40;;;;;;;7.34;96.51;100479.79;108127;1278;21989;-64
2023/12/20 03:33:39;;;;;;;24.70;14.70;;;;;;;7.35;96.53;100479.96;108168;1287;22028;-64
2023/12/20 03:36:05;;;;;;;21.00;13.30;;;;;;;7.33;96.47;100481.17;108173;1278;22758;-64
2023/12/20 03:38:30;;;;;;;19.40;12.20;;;;;;;7.34;96.34;100481.02;108110;1284;21983;-64
2023/12/20 03:40:56;;;;;;;18.90;12.90;;;;;;;7.34;96.06;100477.52;108191;1287;22016;-64
2023/12/20 03:43:21;;;;;;;23.00;13.40;;;;;;;7.31;95.67;100476.11;108132;1284;22000;-64
2023/12/20 03:45:47;;;;;;;21.60;13.80;;;;;;;7.27;95.28;100477.33;108157;1287;22030;-65
2023/12/20 03:48:13;;;;;;;23.20;13.20;;;;;;;7.23;95.04;100479.23;108188;1287;21990;-66
2023/12/20 03:50:38;;;;;;;21.00;12.60;;;;;;;7.20;94.90;100473.65;108219;1278;21994;-66
2023/12/20 03:53:04;;;;;;;21.10;13.20;;;;;;;7.16;95.05;100472.41;108201;1287;22010;-65
2023/12/20 03:55:29;;;;;;;21.80;13.10;;;;;;;7.14;95.24;100468.73;108168;1287;21961;-66
2023/12/20 03:57:55;;;;;;;22.10;13.10;;;;;;;7.11;94.80;100467.50;108224;1287;22045;-64
2023/12/20 04:00:21;;;;;;;21.70;13.80;;;;;;;7.08;94.57;100469.23;108217;1287;21995;-66
2023/12/20 04:02:46;;;;;;;21.20;13.90;;;;;;;7.07;94.41;100470.28;108084;1287;21992;-66
2023/12/20 04:05:12;;;;;;;19.40;12.80;;;;;;;7.06;94.65;100473.08;108082;1287;21995;-64
2023/12/20 04:07:38;;;;;;;21.60;13.20;;;;;;;7.06;94.53;100470.98;108099;1287;21990;-66
2023/12/20 04:10:04;;;;;;;22.10;14.50;;;;;;;7.06;94.67;100473.60;108062;1284;21989;-64
2023/12/20 04:12:30;;;;;;;22.50;14.80;;;;;;;7.04;94.96;100472.90;108100;1287;21958;-67
2023/12/20 04:14:59;;;;;;;24.40;14.80;;;;;;;7.01;95.52;100471.32;108078;1287;21996;-67
2023/12/20 04:17:25;;;;;;;27.70;16.60;;;;;;;6.98;96.46;100474.79;108113;1287;22001;-64
2023/12/20 04:19:51;;;;;;;28.40;17.70;;;;;;;6.98;97.07;100474.79;108105;1278;23024;-63
2023/12/20 04:22:19;;;;;;;32.30;17.20;;;;;;;6.99;97.62;100468.52;108063;1278;22001;-68
2023/12/20 04:24:45;;;;;;;24.70;15.40;;;;;;;7.02;97.26;100465.21;108091;1279;21992;-68
2023/12/20 04:27:11;;;;;;;28.70;17.10;;;;;;;7.03;97.14;100468.18;108064;1287;21992;-64
2023/12/20 04:29:36;;;;;;;29.90;17.40;;;;;;;7.05;96.86;100463.13;108152;1287;21997;-67
2023/12/20 04:32:02;;;;;;;29.50;18.60;;;;;;;7.05;97.07;100459.98;107503;1281;1002520;-67
2023/12/20 04:34:28;;;;;;;27.50;17.70;;;;;;;7.04;97.09;100458.23;108256;1287;21992;-64
2023/12/20 04:36:53;;;;;;;29.20;17.90;;;;;;;7.05;96.93;100455.10;108212;1285;21992;-65
2023/12/20 04:39:19;;;;;;;27.80;17.50;;;;;;;7.05;96.74;100457.54;108149;1287;21980;-63
2023/12/20 04:41:45;;;;;;;31.40;18.10;;;;;;;7.04;97.29;100457.36;108217;1287;22030;-64
2023/12/20 04:44:10;;;;;;;35.00;21.50;;;;;;;7.02;98.56;100455.95;108222;1278;22003;-66
2023/12/20 04:46:36;;;;;;;35.40;20.90;;;;;;;7.01;99.40;100453.00;108210;1281;21987;-63
2023/12/20 04:49:02;;;;;;;28.40;18.20;;;;;;;7.03;100.00;100451.09;108160;1287;21988;-63
2023/12/20 04:51:27;;;;;;;24.10;16.50;;;;;;;7.07;100.00;100450.05;108200;1287;21993;-65
2023/12/20 04:53:53;;;;;;;19.00;13.00;;;;;;;7.06;100.00;100448.82;108271;1287;22491;-68
2023/12/20 04:56:19;;;;;;;17.40;13.10;;;;;;;7.06;100.00;100441.14;108304;1277;21995;-66
2023/12/20 04:58:45;;;;;;;16.50;11.60;;;;;;;7.07;100.00;100438.52;108188;1287;21991;-64
2023/12/20 05:01:10;;;;;;;15.20;11.10;;;;;;;7.06;100.00;100435.73;108234;1287;22037;-66
2023/12/20 05:03:36;;;;;;;18.40;12.90;;;;;;;7.02;100.00;100428.39;108145;1284;21990;-66
2023/12/20 05:06:01;;;;;;;17.10;12.10;;;;;;;6.96;100.00;100428.73;108151;1287;21992;-63
2023/12/20 05:08:27;;;;;;;18.40;12.70;;;;;;;6.95;100.00;100429.23;108177;1283;21996;-67
2023/12/20 05:10:54;;;;;;;16.60;12.20;;;;;;;7.01;100.00;100424.38;108222;1278;21992;-67
2023/12/20 05:13:19;;;;;;;17.70;12.70;;;;;;;7.10;100.00;100417.42;108140;1284;22027;-63
2023/12/20 05:15:45;;;;;;;15.70;11.50;;;;;;;7.15;100.00;100420.23;108124;1287;21992;-65
2023/12/20 05:18:10;;;;;;;18.50;11.70;;;;;;;7.20;100.00;100418.49;108104;1278;21993;-65
2023/12/20 05:20:37;;;;;;;16.40;11.60;;;;;;;7.20;100.00;100415.52;108148;1288;21989;-67
2023/12/20 05:23:02;;;;;;;18.80;13.30;;;;;;;7.24;100.00;100416.77;108125;1287;22100;-63
2023/12/20 05:25:28;;;;;;;20.50;14.20;;;;;;;7.28;100.00;100416.58;108200;1279;21989;-62
2023/12/20 05:27:53;;;;;;;22.10;14.40;;;;;;;7.30;100.00;100418.16;108160;1277;21987;-64
2023/12/20 05:30:19;;;;;;;20.10;13.20;;;;;;;7.31;100.00;100419.55;107420;1283;1002584;-62
2023/12/20 05:32:45;;;;;;;21.20;13.70;;;;;;;7.31;100.00;100420.25;108126;1287;21985;-67
2023/12/20 05:35:11;;;;;;;22.70;14.30;;;;;;;7.31;100.00;100424.80;108027;1287;22000;-68
2023/12/20 05:37:37;;;;;;;21.40;13.30;;;;;;;7.32;100.00;100425.84;108007;1286;21990;-61
2023/12/20 05:40:04;;;;;;;20.90;14.60;;;;;;;7.38;100.00;100423.23;107927;1288;22003;-63
2023/12/20 05:42:30;;;;;;;19.40;12.90;;;;;;;7.45;100.00;100419.77;108147;1279;21996;-66
2023/12/20 05:44:55;;;;;;;22.90;14.10;;;;;;;7.52;100.00;100418.17;108162;1283;21992;-62
2023/12/20 05:47:21;;;;;;;19.40;12.80;;;;;;;7.61;100.00;100415.76;108160;1281;21985;-63
2023/12/20 05:49:46;;;;;;;19.30;12.50;;;;;;;7.69;100.00;100422.22;108124;1277;24394;-65
2023/12/20 05:52:12;;;;;;;19.00;13.10;;;;;;;7.73;100.00;100419.77;108176;1287;21996;-60
2023/12/20 05:54:37;;;;;;;20.50;13.30;;;;;;;7.77;100.00;100424.14;108144;1287;21959;-64
2023/12/20 05:57:03;;;;;;;22.30;13.50;;;;;;;7.82;100.00;100425.70;108148;1287;22008;-60
2023/12/20 05:59:29;;;;;;;17.70;12.60;;;;;;;7.87;100.00;100430.61;108124;1287;22453;-60
2023/12/20 06:01:55;;;;;;;21.60;13.90;;;;;;;7.92;100.00;100433.93;108155;1287;21990;-65
2023/12/20 06:04:20;;;;;;;19.50;13.30;;;;;;;7.97;100.00;100434.62;108184;1283;21992;-61
2023/12/20 06:06:46;;;;;;;16.70;12.00;;;;;;;8.00;100.00;100434.61;108147;1280;21992;-66
2023/12/20 06:09:12;;;;;;;18.20;11.60;;;;;;;8.04;100.00;100427.96;108177;1284;22013;-62
2023/12/20 06:11:37;;;;;;;14.80;10.90;;;;;;;8.10;100.00;100429.71;108157;1284;21998;-62
2023/12/20 06:14:03;;;;;;;14.50;9.90;;;;;;;8.15;100.00;100431.98;108163;1287;21993;-66
2023/12/20 06:16:28;;;;;;;14.00;9.30;;;;;;;8.18;100.00;100430.73;107406;1281;1002356;-67
2023/12/20 06:18:54;;;;;;;13.90;9.10;;;;;;;8.22;100.00;100426.55;108134;1288;21994;-66
2023/12/20 06:21:19;;;;;;;11.80;8.40;;;;;;;8.25;100.00;100427.93;108195;1287;21995;-63
2023/12/20 06:23:45;;;;;;;15.70;8.40;;;;;;;8.25;100.00;100430.04;108113;1287;22006;-66
2023/12/20 06:26:11;;;;;;;11.90;7.70;;;;;;;8.28;100.00;100428.28;108157;1281;21988;-67
2023/12/20 06:28:36;;;;;;;12.30;8.10;;;;;;;8.31;100.00;100430.20;108226;1287;22023;-67
2023/12/20 06:31:03;;;;;;;11.80;7.50;;;;;;;8.34;100.00;100427.74;108184;1287;21983;-67
2023/12/20 06:33:30;;;;;;;10.70;7.30;;;;;;;8.28;100.00;100426.01;108120;1287;21992;-67
2023/12/20 06:35:57;;;;;;;10.80;7.50;;;;;;;8.28;100.00;100423.91;108178;1278;21986;-67
2023/12/20 06:38:23;;;;;;;11.10;7.20;;;;;;;8.28;100.00;100424.96;108180;1287;21989;-68
2023/12/20 06:40:48;;;;;;;11.70;7.80;;;;;;;8.33;100.00;100423.91;106364;1287;2384323;-67
2023/12/20 06:43:14;;;;;;;11.60;7.40;;;;;;;8.37;100.00;100425.64;108153;1278;22020;-67
2023/12/20 06:45:40;;;;;;;12.40;7.50;;;;;;;8.42;100.00;100420.55;108124;1281;21998;-65
2023/12/20 06:48:06;;;;;;;10.40;7.30;;;;;;;8.49;100.00;100418.45;108244;1287;21989;-68
2023/12/20 06:50:32;;;;;;;11.20;7.00;;;;;;;8.51;100.00;100414.63;108286;1287;21997;-66
2023/12/20 06:52:57;;;;;;;10.90;7.40;;;;;;;8.54;100.00;100411.81;108155;1286;22010;-66
2023/12/20 06:55:25;;;;;;;9.90;7.30;;;;;;;8.59;100.00;100410.75;109171;1287;22002;-67
2023/12/20 06:57:51;;;;;;;9.80;6.60;;;;;;;8.62;100.00;100406.36;108101;1287;21995;-67
2023/12/20 07:00:17;;;;;;;11.70;6.50;;;;;;;8.68;100.00;100398.10;108127;1287;21999;-64
2023/12/20 07:02:43;;;;;;;10.00;7.10;;;;;;;8.71;100.00;100395.65;108167;1287;23715;-65
2023/12/20 07:05:09;;;;;;;10.30;7.00;;;;;;;8.76;100.00;100396.51;108188;1287;21993;-66
2023/12/20 07:07:35;;;;;;;11.50;7.70;;;;;;;8.87;100.00;100391.02;108159;1284;22029;-64
2023/12/20 07:10:00;;;;;;;11.50;7.70;;;;;;;8.93;100.00;100388.20;108115;1287;22010;-65
2023/12/20 07:12:26;;;;;;;12.30;8.40;;;;;;;9.02;100.00;100388.50;108147;1287;21991;-67
2023/12/20 07:14:51;;;;;;;13.10;9.20;;;;;;;9.07;100.00;100389.34;108130;1281;21991;-65
2023/12/20 07:17:17;;;;;;;13.10;9.10;;;;;;;9.13;100.00;100384.93;108163;1287;21996;-66
2023/12/20 07:19:43;;;;;;;12.80;9.00;;;;;;;9.17;100.00;100390.69;108122;1277;21997;-65
2023/12/20 07:22:08;;;;;;;12.00;8.10;;;;;;;9.25;100.00;100389.75;108183;1287;21994;-66
2023/12/20 07:24:34;;;;;;;13.10;8.40;;;;;;;9.30;100.00;100385.86;108154;1281;21987;-66
2023/12/20 07:27:00;;;;;;;15.10;9.30;;;;;;;9.37;100.00;100384.77;108106;1287;21983;-66
2023/12/20 07:29:26;;;;;;;14.80;10.60;;;;;;;9.50;100.00;100386.25;108166;1278;22006;-62
2023/12/20 07:31:53;;;;;;;14.00;9.60;;;;;;;9.57;100.00;100391.80;108130;1287;22002;-64
2023/12/20 07:34:20;;;;;;;15.80;10.60;;;;;;;9.67;100.00;100395.23;108171;1287;21989;-65
2023/12/20 07:36:46;;;;;;;16.80;11.00;;;;;;;9.75;100.00;100394.45;108195;1287;22009;-66
2023/12/20 07:39:11;;;;;;;19.00;12.30;;;;;;;9.80;100.00;100398.27;108128;1278;21992;-64
2023/12/20 07:41:37;;;;;;;16.00;10.90;;;;;;;9.88;100.00;100397.86;108161;1287;21989;-67
2023/12/20 07:44:04;;;;;;;17.70;12.20;;;;;;;9.87;100.00;100392.06;108147;1287;21984;-64
2023/12/20 07:46:30;;;;;;;19.40;12.40;;;;;;;9.95;100.00;100391.46;108151;1287;21991;-64
2023/12/20 07:48:55;;;;;;;20.50;12.30;;;;;;;10.02;100.00;100391.23;108148;1287;21991;-66
2023/12/20 07:51:21;;;;;;;17.80;12.60;;;;;;;10.05;100.00;100387.17;108154;1279;21989;-64
2023/12/20 07:53:46;;;;;;;22.40;14.00;;;;;;;10.05;100.00;100389.80;108153;1276;21992;-65
2023/12/20 07:56:19;;;;;;;20.60;13.10;;;;;;;10.10;100.00;100377.30;108067;1280;21968;-66
2023/12/20 07:58:45;;;;;;;21.80;13.90;;;;;;;10.20;100.00;100374.21;108159;1287;21990;-66
2023/12/20 08:01:11;;;;;;;20.30;14.10;;;;;;;10.26;100.00;100370.98;108119;1279;23313;-67
2023/12/20 08:03:36;;;;;;;22.70;14.20;;;;;;;10.31;100.00;100368.66;108160;1277;22026;-67
2023/12/20 08:06:02;;;;;;;20.50;14.10;;;;;;;10.43;100.00;100363.80;108129;1277;21953;-66
2023/12/20 08:08:28;;;;;;;25.80;15.20;;;;;;;10.51;100.00;100364.95;108161;1287;22065;-68
2023/12/20 08:10:54;;;;;;;24.00;14.30;;;;;;;10.63;100.00;100361.99;108175;1287;21999;-67
2023/12/20 08:13:19;;;;;;;20.80;13.90;;;;;;;10.71;100.00;100360.30;108143;1278;22510;-67
2023/12/20 08:15:45;;;;;;;19.70;14.00;;;;;;;10.79;100.00;100358.96;108163;1281;22049;-65
2023/12/20 08:18:11;;;;;;;22.30;14.20;;;;;;;10.81;100.00;100355.61;108142;1287;21998;-64
2023/12/20 08:20:36;;;;;;;20.60;13.40;;;;;;;10.99;100.00;100347.98;108151;1281;22008;-64
2023/12/20 08:23:02;;;;;;;21.70;14.00;;;;;;;11.07;100.00;100345.23;108142;1287;21998;-65
2023/12/20 08:25:28;;;;;;;25.80;14.40;;;;;;;11.22;100.00;100338.69;108160;1287;21994;-66
2023/12/20 08:27:54;;;;;;;19.70;14.20;;;;;;;11.39;100.00;100343.70;108187;1287;21982;-63
2023/12/20 08:30:21;;;;;;;19.80;12.60;;;;;;;11.50;100.00;100342.82;108134;1287;22048;-65
2023/12/20 08:32:50;;;;;;;21.50;12.80;;;;;;;11.64;100.00;100340.13;108147;1287;21995;-65
2023/12/20 08:35:16;;;;;;;19.10;12.40;;;;;;;11.71;100.00;100334.19;108175;1277;22012;-64
2023/12/20 08:37:41;;;;;;;16.10;11.40;;;;;;;11.73;100.00;100336.61;108148;1287;21997;-63
2023/12/20 08:40:07;;;;;;;20.50;12.40;;;;;;;11.73;100.00;100335.04;108124;1287;21991;-64
2023/12/20 08:42:33;;;;;;;17.30;12.30;;;;;;;11.80;100.00;100332.11;108175;1287;21991;-64
2023/12/20 08:44:59;;;;;;;18.70;12.20;;;;;;;11.96;100.00;100326.02;108168;1281;21989;-64
2023/12/20 08:47:25;;;;;;;20.30;12.90;;;;;;;12.04;100.00;100321.30;108154;1287;21991;-63
2023/12/20 08:49:56;;;;;;;17.50;11.80;;;;;;;12.10;100.00;100317.88;108140;1281;21997;-63
2023/12/20 08:52:25;;;;;;;16.60;12.40;;;;;;;12.11;100.00;100315.36;108118;1287;22459;-65
2023/12/20 08:54:51;;;;;;;16.80;11.30;;;;;;;12.27;100.00;100308.90;108303;1287;21987;-64
2023/12/20 08:57:19;;;;;;;17.60;11.50;;;;;;;12.42;100.00;100303.67;108169;1287;21989;-65
2023/12/20 08:59:45;;;;;;;17.30;12.00;;;;;;;12.50;100.00;100303.33;108168;1287;21987;-62
2023/12/20 09:02:10;;;;;;;15.20;10.80;;;;;;;12.48;100.00;100295.10;108110;1287;21986;-62
2023/12/20 09:04:36;;;;;;;16.60;9.40;;;;;;;12.57;100.00;100294.91;108141;1287;21989;-62
2023/12/20 09:07:02;;;;;;;13.20;9.00;;;;;;;12.58;100.00;100293.11;108162;1287;21997;-62
2023/12/20 09:09:27;;;;;;;14.10;9.40;;;;;;;12.54;100.00;100293.55;108145;1281;21989;-65
2023/12/20 09:11:53;;;;;;;16.40;10.50;;;;;;;12.54;100.00;100287.21;108243;1281;22451;-62
2023/12/20 09:14:18;;;;;;;12.30;8.60;;;;;;;12.56;100.00;100282.80;108198;1287;22003;-64
2023/12/20 09:16:44;;;;;;;16.30;9.20;;;;;;;12.51;100.00;100283.58;108258;1287;21986;-64
2023/12/20 09:19:10;;;;;;;16.00;9.00;;;;;;;12.64;100.00;100269.76;108156;1277;22015;-64
2023/12/20 09:21:35;;;;;;;13.50;8.20;;;;;;;12.77;100.00;100265.78;108156;1287;22026;-62
2023/12/20 09:24:01;;;;;;;11.90;7.70;;;;;;;12.90;100.00;100257.02;108146;1281;21987;-62
2023/12/20 09:26:26;;;;;;;14.90;8.70;;;;;;;12.89;100.00;100255.63;108161;1287;21985;-62
2023/12/20 09:28:52;;;;;;;13.40;8.50;;;;;;;13.02;100.00;100242.45;108141;1286;21986;-62
2023/12/20 09:31:18;;;;;;;13.00;8.00;;;;;;;13.21;100.00;100239.70;108152;1287;22001;-62
2023/12/20 09:33:43;;;;;;;12.70;8.00;;;;;;;13.21;100.00;100235.46;108195;1287;21994;-63
2023/12/20 09:36:09;;;;;;;12.70;7.80;;;;;;;13.24;100.00;100231.16;108188;1287;21994;-64
2023/12/20 09:38:34;;;;;;;12.50;7.80;;;;;;;13.41;100.00;100222.63;108175;1281;21991;-63
2023/12/20 09:41:02;;;;;;;13.10;7.90;;;;;;;13.47;100.00;100215.98;108186;1287;21986;-63
2023/12/20 09:43:29;;;;;;;13.70;8.00;;;;;;;13.46;100.00;100207.35;108118;1287;22004;-64
2023/12/20 09:45:55;;;;;;;11.50;7.50;;;;;;;13.53;100.00;100198.86;107992;1287;21987;-63
2023/12/20 09:48:20;;;;;;;13.00;7.90;;;;;;;13.70;100.00;100192.42;108021;1287;23490;-62
2023/12/20 09:50:46;;;;;;;13.50;7.20;;;;;;;13.81;100.00;100189.46;108168;1287;22011;-62
2023/12/20 09:53:15;;;;;;;11.70;7.20;;;;;;;13.99;100.00;100179.60;108189;1287;21992;-62
2023/12/20 09:55:41;;;;;;;12.60;7.30;;;;;;;14.06;100.00;100176.20;108164;1287;21958;-64
2023/12/20 09:58:08;;;;;;;12.50;7.60;;;;;;;14.07;100.00;100176.73;108187;1287;21989;-65
2023/12/20 10:00:36;;;;;;;11.10;6.70;;;;;;;14.14;99.44;100171.23;108174;1287;23760;-62
2023/12/20 10:03:02;;;;;;;10.70;7.30;;;;;;;14.28;99.98;100164.98;108165;1287;21989;-62
2023/12/20 10:05:32;;;;;;;13.10;6.50;;;;;;;14.39;99.69;100164.63;108107;1280;21996;-62
2023/12/20 10:07:58;;;;;;;10.50;6.50;;;;;;;14.49;98.68;100165.36;108270;1281;21988;-64
2023/12/20 10:10:24;;;;;;;10.60;6.70;;;;;;;14.43;96.21;100162.74;108184;1287;21991;-63
2023/12/20 10:13:03;;;;;;;9.60;6.50;;;;;;;14.49;97.40;100161.86;108103;1287;22452;-62
2023/12/20 10:15:29;;;;;;;12.00;7.40;;;;;;;14.59;97.17;100157.64;108167;1287;21988;-62
2023/12/20 10:17:54;;;;;;;11.30;6.40;;;;;;;14.62;94.96;100151.73;108139;1287;22006;-64
2023/12/20 10:20:20;;;;;;;11.10;6.30;;;;;;;14.69;94.85;100139.84;108175;1287;21994;-63
2023/12/20 10:22:46;;;;;;;11.70;6.50;;;;;;;14.69;92.47;100133.83;108158;1287;21989;-65
2023/12/20 10:25:12;;;;;;;8.90;5.60;;;;;;;14.78;93.34;100130.35;108072;1287;21996;-61
2023/12/20 10:27:37;;;;;;;12.80;6.10;;;;;;;14.86;91.92;100127.11;108153;1287;21989;-61
2023/12/20 10:30:04;;;;;;;10.00;6.70;;;;;;;15.03;93.09;100119.11;108228;1287;21985;-63
2023/12/20 10:32:31;;;;;;;10.00;5.90;;;;;;;15.15;93.77;100111.10;108230;1287;21988;-63
2023/12/20 10:34:57;;;;;;;11.50;5.90;;;;;;;15.13;87.16;100101.80;108204;1287;22002;-63
2023/12/20 10:37:23;;;;;;;13.50;5.80;;;;;;;15.26;88.72;100091.97;108119;1287;21992;-64
2023/12/20 10:39:51;;;;;;;9.30;5.80;;;;;;;15.41;89.50;100095.86;108151;1287;21994;-62
2023/12/20 10:42:19;;;;;;;9.00;6.20;;;;;;;15.37;85.40;100092.11;108230;1287;22002;-64
2023/12/20 10:44:45;;;;;;;11.50;6.40;;;;;;;15.40;83.91;100086.35;108172;1287;21986;-63
2023/12/20 10:47:10;;;;;;;10.80;6.40;;;;;;;15.43;84.67;100078.98;107986;1281;21989;-63
2023/12/20 10:49:36;;;;;;;11.40;6.80;;;;;;;15.52;86.88;100077.21;107987;1287;21992;-61
2023/12/20 10:52:02;;;;;;;10.50;6.40;;;;;;;15.58;84.46;100076.66;108166;1287;21996;-61
2023/12/20 10:54:28;;;;;;;11.00;6.80;;;;;;;15.67;85.00;100074.52;108142;1287;22455;-64
2023/12/20 10:56:53;;;;;;;11.80;7.00;;;;;;;15.65;81.77;100073.20;107993;1287;21992;-61
2023/12/20 10:59:19;;;;;;;10.10;6.10;;;;;;;15.51;77.54;100071.79;108017;1284;21998;-62